M I D A S
Marine Information and Data Acquisition System
Tripno 1285 of the Zeeleeuw from 2007-06-12 09:54:01 to 2007-06-12 15:31:28
Back to CruiseResearch ActivitiesStationsMapUnderway DataData graphs

EquipmentUnitsComment
TimeDGPSUTC
LatitudeDGPSDM.mWGS84
LongitudeDGPSDM.mWGS84
HeadingGyrodeg 
SOGDGPSknotsSpeed over ground
COGDGPSdegCourse over ground
DepthEcho soundermeters200 kHz
Missing or incorrect values are displayed as -999
Navigation data collected by the RV Zeeleeuw from 2007-06-12 07:08:21 to 2007-06-12 15:41:42
Time Latitude Longitude Heading SOG COG Depth
2007-06-12 07:09:26 51°13.597 2°56.093 125.5 -999 283 -999
2007-06-12 07:10:26 51°13.598 2°56.093 125.5 -999 341 -999
2007-06-12 07:11:26 51°13.598 2°56.094 125 -999 146 -999
2007-06-12 07:12:26 51°13.598 2°56.095 125.5 -999 254 -999
2007-06-12 07:13:26 51°13.599 2°56.095 125.5 -999 349 -999
2007-06-12 07:14:26 51°13.599 2°56.094 125.6 -999 325 -999
2007-06-12 07:15:26 51°13.599 2°56.093 125.3 -999 356 -999
2007-06-12 07:16:26 51°13.6 2°56.094 125.3 -999 111 -999
2007-06-12 07:17:26 51°13.6 2°56.094 125.4 -999 154 -999
2007-06-12 07:18:26 51°13.601 2°56.094 125.4 -999 54 -999
2007-06-12 07:19:26 51°13.601 2°56.094 125.4 -999 156 -999
2007-06-12 07:20:26 51°13.6 2°56.094 125.5 -999 355 -999
2007-06-12 07:21:26 51°13.601 2°56.094 125.5 -999 331 -999
2007-06-12 07:22:26 51°13.6 2°56.095 125.5 -999 325 -999
2007-06-12 07:23:26 51°13.599 2°56.095 125.5 -999 327 -999
2007-06-12 07:24:26 51°13.599 2°56.094 125.5 -999 344 -999
2007-06-12 07:25:26 51°13.598 2°56.094 125.5 -999 143 -999
2007-06-12 07:26:26 51°13.598 2°56.095 125.5 -999 175 -999
2007-06-12 07:27:26 51°13.598 2°56.095 125.5 -999 162 -999
2007-06-12 07:28:26 51°13.598 2°56.094 125.5 -999 144 -999
2007-06-12 07:29:26 51°13.597 2°56.093 125.5 -999 289 -999
2007-06-12 07:30:26 51°13.597 2°56.093 125.5 -999 357 -999
2007-06-12 07:31:26 51°13.598 2°56.093 125.5 -999 162 -999
2007-06-12 07:32:26 51°13.598 2°56.093 125.5 -999 355 -999
2007-06-12 07:33:26 51°13.598 2°56.093 125.6 -999 175 -999
2007-06-12 07:34:26 51°13.598 2°56.093 125.6 -999 121 -999
2007-06-12 07:35:26 51°13.599 2°56.092 125.3 -999 131 -999
2007-06-12 07:36:26 51°13.599 2°56.091 125.2 -999 154 -999
2007-06-12 07:37:26 51°13.599 2°56.091 125.3 -999 255 -999
2007-06-12 07:38:26 51°13.599 2°56.092 125.4 -999 179 -999
2007-06-12 07:39:26 51°13.597 2°56.092 125.4 -999 45 -999
2007-06-12 07:40:26 51°13.597 2°56.093 125.3 -999 288 -999
2007-06-12 07:41:26 51°13.599 2°56.094 125.3 -999 246 -999
2007-06-12 07:42:26 51°13.599 2°56.094 125.4 -999 286 -999
2007-06-12 07:43:26 51°13.598 2°56.094 125.5 -999 139 -999
2007-06-12 07:44:26 51°13.599 2°56.094 125.5 -999 258 -999
2007-06-12 07:45:26 51°13.599 2°56.094 125.5 -999 279 -999
2007-06-12 07:46:26 51°13.599 2°56.094 125.5 -999 78 -999
2007-06-12 07:47:26 51°13.599 2°56.094 125.5 -999 69 -999
2007-06-12 07:48:26 51°13.599 2°56.094 125.5 -999 78 -999
2007-06-12 07:49:26 51°13.599 2°56.094 125.5 -999 308 -999
2007-06-12 07:50:26 51°13.599 2°56.094 125.6 -999 95 -999
2007-06-12 07:51:26 51°13.599 2°56.094 125.5 -999 263 -999
2007-06-12 07:52:26 51°13.599 2°56.094 125.5 -999 276 -999
2007-06-12 07:53:26 51°13.599 2°56.094 125.6 -999 18 -999
2007-06-12 07:54:26 51°13.6 2°56.095 125.6 -999 264 -999
2007-06-12 07:55:26 51°13.6 2°56.095 125.6 -999 212 -999
2007-06-12 07:56:26 51°13.6 2°56.094 125.6 -999 160 -999
2007-06-12 07:57:26 51°13.599 2°56.094 125.6 -999 144 -999
2007-06-12 07:58:26 51°13.599 2°56.094 125.6 -999 284 -999
2007-06-12 07:59:26 51°13.6 2°56.094 125.6 -999 128 -999
2007-06-12 08:00:26 51°13.6 2°56.095 125.6 -999 81 -999
2007-06-12 08:01:26 51°13.599 2°56.095 125.5 -999 26 -999
2007-06-12 08:02:26 51°13.599 2°56.095 125.5 -999 274 -999
2007-06-12 08:03:26 51°13.598 2°56.096 125.5 -999 92 -999
2007-06-12 08:04:26 51°13.598 2°56.096 125.5 -999 191 -999
2007-06-12 08:05:26 51°13.598 2°56.096 125.5 -999 95 -999
2007-06-12 08:06:26 51°13.598 2°56.096 125.5 -999 332 -999
2007-06-12 08:07:26 51°13.599 2°56.096 125.5 -999 118 -999
2007-06-12 08:08:26 51°13.598 2°56.095 125.5 -999 307 -999
2007-06-12 08:09:26 51°13.597 2°56.095 125.5 -999 339 -999
2007-06-12 08:10:26 51°13.598 2°56.095 125.5 -999 323 -999
2007-06-12 08:11:26 51°13.599 2°56.095 125.5 -999 101 -999
2007-06-12 08:12:26 51°13.6 2°56.096 125.5 -999 245 -999
2007-06-12 08:13:26 51°13.599 2°56.094 125.5 -999 273 -999
2007-06-12 08:14:26 51°13.6 2°56.094 125.5 -999 257 -999
2007-06-12 08:15:26 51°13.6 2°56.094 125.5 -999 308 -999
2007-06-12 08:16:26 51°13.599 2°56.094 125.5 -999 317 -999
2007-06-12 08:17:26 51°13.599 2°56.094 125.5 -999 11 -999
2007-06-12 08:18:26 51°13.601 2°56.094 125.5 -999 294 -999
2007-06-12 08:19:26 51°13.602 2°56.094 125.5 -999 298 -999
2007-06-12 08:20:26 51°13.601 2°56.094 125.5 -999 265 -999
2007-06-12 08:21:26 51°13.601 2°56.094 125.5 -999 27 -999
2007-06-12 08:22:26 51°13.599 2°56.094 125.5 -999 301 -999
2007-06-12 08:23:26 51°13.598 2°56.095 125.5 -999 349 -999
2007-06-12 08:24:26 51°13.597 2°56.095 125.5 -999 127 -999
2007-06-12 08:25:26 51°13.597 2°56.094 125.5 -999 143 -999
2007-06-12 08:26:26 51°13.598 2°56.094 125.5 -999 304 -999
2007-06-12 08:27:26 51°13.598 2°56.094 125.5 -999 98 -999
2007-06-12 08:28:26 51°13.598 2°56.094 125.5 -999 151 -999
2007-06-12 08:29:26 51°13.597 2°56.094 125.5 -999 111 -999
2007-06-12 08:30:26 51°13.597 2°56.094 125.5 -999 244 -999
2007-06-12 08:31:26 51°13.597 2°56.094 125.5 -999 324 -999
2007-06-12 08:32:26 51°13.598 2°56.093 125.5 -999 326 -999
2007-06-12 08:33:26 51°13.598 2°56.094 125.5 -999 277 -999
2007-06-12 08:34:26 51°13.597 2°56.094 125.5 -999 192 -999
2007-06-12 08:35:26 51°13.597 2°56.094 125.5 -999 305 -999
2007-06-12 08:36:26 51°13.597 2°56.093 125.5 -999 42 -999
2007-06-12 08:37:26 51°13.598 2°56.094 125.5 -999 143 -999
2007-06-12 08:38:26 51°13.599 2°56.093 125.6 -999 112 -999
2007-06-12 08:39:26 51°13.599 2°56.093 125.6 -999 318 -999
2007-06-12 08:40:26 51°13.599 2°56.094 125.6 -999 221 -999
2007-06-12 08:41:26 51°13.599 2°56.094 125.6 -999 67 -999
2007-06-12 08:42:26 51°13.6 2°56.094 125.6 -999 155 -999
2007-06-12 08:43:26 51°13.6 2°56.094 125.6 -999 135 -999
2007-06-12 08:44:26 51°13.6 2°56.094 125.5 -999 194 -999
2007-06-12 08:45:26 51°13.6 2°56.094 125.5 -999 141 -999
2007-06-12 08:46:26 51°13.6 2°56.094 125.5 -999 165 -999
2007-06-12 08:47:26 51°13.599 2°56.093 125.5 -999 113 -999
2007-06-12 08:48:26 51°13.599 2°56.094 125.5 -999 132 -999
2007-06-12 08:49:26 51°13.599 2°56.094 125.5 -999 90 -999
2007-06-12 08:50:26 51°13.599 2°56.094 125.5 -999 76 -999
2007-06-12 08:51:26 51°13.599 2°56.094 125.5 -999 330 -999
2007-06-12 08:52:26 51°13.6 2°56.094 125.5 -999 244 -999
2007-06-12 08:53:26 51°13.599 2°56.094 125.5 -999 317 -999
2007-06-12 08:54:26 51°13.599 2°56.095 125.5 -999 134 -999
2007-06-12 08:55:26 51°13.598 2°56.095 125.5 -999 333 -999
2007-06-12 08:56:26 51°13.598 2°56.095 125.5 -999 320 -999
2007-06-12 08:57:26 51°13.598 2°56.095 125.5 -999 322 -999
2007-06-12 08:58:26 51°13.598 2°56.095 125.5 -999 164 10.8
2007-06-12 08:59:26 51°13.598 2°56.096 125.5 -999 72 10.9
2007-06-12 09:00:26 51°13.598 2°56.096 125.5 -999 42 11
2007-06-12 09:01:26 51°13.598 2°56.096 125.5 -999 143 10.9
2007-06-12 09:02:26 51°13.597 2°56.097 125.5 -999 74 10.9
2007-06-12 09:03:26 51°13.597 2°56.096 125.5 -999 233 10.9
2007-06-12 09:04:26 51°13.598 2°56.096 125.5 -999 334 10.9
2007-06-12 09:05:26 51°13.598 2°56.096 125.5 -999 156 11
2007-06-12 09:06:26 51°13.598 2°56.096 125.5 -999 161 10.9
2007-06-12 09:07:26 51°13.598 2°56.096 125.6 -999 288 10.9
2007-06-12 09:08:26 51°13.599 2°56.096 125.6 -999 256 11
2007-06-12 09:09:26 51°13.599 2°56.097 125.6 -999 125 11
2007-06-12 09:10:26 51°13.599 2°56.096 125.6 -999 86 10.9
2007-06-12 09:11:26 51°13.599 2°56.097 125.6 -999 199 11
2007-06-12 09:12:26 51°13.599 2°56.097 125.6 -999 -999 11
2007-06-12 09:13:26 51°13.599 2°56.097 125.6 -999 341 10.9
2007-06-12 09:14:26 51°13.599 2°56.096 125.5 -999 294 11
2007-06-12 09:15:26 51°13.598 2°56.095 125.5 -999 320 10.9
2007-06-12 09:16:26 51°13.598 2°56.094 125.4 -999 67 11
2007-06-12 09:17:26 51°13.598 2°56.093 125.4 -999 60 11
2007-06-12 09:18:26 51°13.598 2°56.093 125.4 -999 283 11
2007-06-12 09:19:26 51°13.598 2°56.093 125.4 -999 222 11
2007-06-12 09:20:26 51°13.598 2°56.093 125.3 -999 190 11
2007-06-12 09:21:26 51°13.598 2°56.094 125.3 -999 226 11
2007-06-12 09:22:26 51°13.598 2°56.093 125.3 -999 197 11
2007-06-12 09:23:26 51°13.599 2°56.094 125.3 -999 227 10.9
2007-06-12 09:24:26 51°13.599 2°56.094 125.3 -999 244 11
2007-06-12 09:25:26 51°13.598 2°56.094 125.3 -999 233 11
2007-06-12 09:26:26 51°13.599 2°56.095 125.3 -999 282 11
2007-06-12 09:27:26 51°13.599 2°56.095 125.3 -999 273 11
2007-06-12 09:28:26 51°13.6 2°56.096 125.2 -999 87 11
2007-06-12 09:29:26 51°13.599 2°56.095 125.2 -999 133 11
2007-06-12 09:30:26 51°13.599 2°56.095 125.2 -999 84 11
2007-06-12 09:31:26 51°13.599 2°56.095 125.2 -999 175 11
2007-06-12 09:32:26 51°13.6 2°56.095 125.2 -999 111 11
2007-06-12 09:33:26 51°13.6 2°56.096 125.2 -999 68 11
2007-06-12 09:34:26 51°13.599 2°56.095 125.2 -999 217 11
2007-06-12 09:35:26 51°13.599 2°56.095 125.2 -999 2 11
2007-06-12 09:36:26 51°13.599 2°56.095 125.1 -999 67 11
2007-06-12 09:37:26 51°13.599 2°56.094 125.1 -999 236 11
2007-06-12 09:38:26 51°13.599 2°56.093 125.1 -999 233 11
2007-06-12 09:39:26 51°13.599 2°56.093 125.2 -999 12 11
2007-06-12 09:40:26 51°13.599 2°56.093 125.2 -999 77 11
2007-06-12 09:41:26 51°13.599 2°56.094 125.2 -999 185 10.9
2007-06-12 09:42:26 51°13.599 2°56.094 125.2 -999 25 11
2007-06-12 09:43:26 51°13.599 2°56.094 125.3 -999 96 11
2007-06-12 09:44:26 51°13.599 2°56.094 125.3 -999 114 11
2007-06-12 09:45:26 51°13.599 2°56.093 125.3 -999 160 11
2007-06-12 09:46:26 51°13.598 2°56.093 125.4 -999 154 11
2007-06-12 09:47:26 51°13.597 2°56.094 125.4 -999 347 11
2007-06-12 09:48:26 51°13.598 2°56.094 125.4 -999 60 11
2007-06-12 09:49:26 51°13.598 2°56.095 125.4 -999 355 11
2007-06-12 09:50:26 51°13.598 2°56.094 125.4 -999 166 11
2007-06-12 09:51:26 51°13.597 2°56.093 125.5 -999 86 10.9
2007-06-12 09:52:26 51°13.596 2°56.093 125.5 -999 264 11
2007-06-12 09:53:26 51°13.596 2°56.092 125.5 -999 243 11
2007-06-12 09:54:26 51°13.597 2°56.094 125.9 0.1 120 11
2007-06-12 09:55:26 51°13.597 2°56.094 117.7 0.2 285 10.9
2007-06-12 09:56:26 51°13.616 2°56.033 120.6 4.5 297 -999
2007-06-12 09:57:26 51°13.659 2°55.91 118.3 5.8 297 -999
2007-06-12 09:58:26 51°13.684 2°55.798 98.9 3.5 282 13.5
2007-06-12 09:59:26 51°13.687 2°55.734 72.5 1.3 265 14.2
2007-06-12 10:00:26 51°13.712 2°55.737 10.8 3.7 355 14.8
2007-06-12 10:01:26 51°13.791 2°55.673 332.1 7 330 13.8
2007-06-12 10:02:27 51°13.916 2°55.578 340.2 8.8 336 13.8
2007-06-12 10:03:26 51°14.038 2°55.491 340.4 7.2 337 13.8
2007-06-12 10:04:27 51°14.152 2°55.407 338.3 8.5 333 13.9
2007-06-12 10:05:26 51°14.289 2°55.229 319.6 12.2 314 13.8
2007-06-12 10:06:27 51°14.459 2°55.018 331.1 13 332 12.5
2007-06-12 10:07:26 51°14.641 2°54.849 329.9 12.9 332 12
2007-06-12 10:08:27 51°14.821 2°54.659 323.1 12.5 319 12
2007-06-12 10:09:26 51°14.918 2°54.391 286.8 11.6 284 11.8
2007-06-12 10:10:27 51°14.972 2°54.082 287.7 12 284 11.2
2007-06-12 10:11:27 51°15.005 2°53.77 280.9 12.1 285 11.9
2007-06-12 10:12:26 51°15.063 2°53.469 286.7 12.1 288 12.4
2007-06-12 10:13:27 51°15.129 2°53.161 290.4 12.2 292 12.6
2007-06-12 10:14:26 51°15.206 2°52.869 293.5 12.1 293 13.1
2007-06-12 10:15:26 51°15.268 2°52.567 283.7 11.8 283 13.5
2007-06-12 10:16:26 51°15.314 2°52.262 283.3 11.9 284 14
2007-06-12 10:17:26 51°15.357 2°51.956 281.4 11.8 282 14.4
2007-06-12 10:18:26 51°15.39 2°51.648 279.3 11.8 279 14.7
2007-06-12 10:19:26 51°15.424 2°51.34 279.7 11.8 279 14.9
2007-06-12 10:20:27 51°15.455 2°51.025 279.2 12 279 15.2
2007-06-12 10:21:26 51°15.482 2°50.718 275.3 11.8 274 15.2
2007-06-12 10:22:27 51°15.496 2°50.403 273.7 11.7 275 15.2
2007-06-12 10:23:26 51°15.505 2°50.099 273.2 11.8 272 15.4
2007-06-12 10:24:27 51°15.53 2°49.779 278.5 12 278 15.4
2007-06-12 10:25:26 51°15.556 2°49.473 278.1 11.8 278 15.5
2007-06-12 10:26:27 51°15.581 2°49.155 278 11.9 277 14.1
2007-06-12 10:27:26 51°15.621 2°48.848 288.8 12.2 290 12.9
2007-06-12 10:28:27 51°15.694 2°48.539 291 12.2 290 13.5
2007-06-12 10:29:27 51°15.766 2°48.237 291 12.2 292 14.7
2007-06-12 10:30:26 51°15.838 2°47.943 291 12.1 292 16.8
2007-06-12 10:31:27 51°15.912 2°47.641 290.9 12 291 18.3
2007-06-12 10:32:26 51°15.984 2°47.349 290.2 12 292 18.5
2007-06-12 10:33:26 51°16.058 2°47.053 291 11.9 292 18.1
2007-06-12 10:34:27 51°16.131 2°46.752 289.8 12 291 16.1
2007-06-12 10:35:26 51°16.203 2°46.458 290.6 12.2 292 13.9
2007-06-12 10:36:27 51°16.277 2°46.151 290 12.3 291 12.5
2007-06-12 10:37:26 51°16.349 2°45.851 290.7 12.4 291 12.3
2007-06-12 10:38:27 51°16.426 2°45.541 290.7 12.4 292 13.7
2007-06-12 10:39:26 51°16.499 2°45.241 290 12.4 291 13.9
2007-06-12 10:40:27 51°16.574 2°44.929 290.2 12.4 291 13.4
2007-06-12 10:41:26 51°16.647 2°44.628 290.4 12.4 292 14.7
2007-06-12 10:42:27 51°16.723 2°44.317 290.4 12.4 292 16.8
2007-06-12 10:43:27 51°16.798 2°44.011 290 12.3 291 17
2007-06-12 10:44:27 51°16.874 2°43.708 290.1 12.3 292 17.1
2007-06-12 10:45:27 51°16.95 2°43.405 290.5 12.2 292 16
2007-06-12 10:46:26 51°17.024 2°43.11 290.1 12.1 292 14.9
2007-06-12 10:47:27 51°17.099 2°42.806 290.5 12 292 12.4
2007-06-12 10:48:26 51°17.175 2°42.518 290 11.9 292 12.9
2007-06-12 10:49:27 51°17.255 2°42.216 290.3 12.2 292 23.1
2007-06-12 10:50:26 51°17.335 2°41.921 291.1 12.3 294 25.7
2007-06-12 10:51:26 51°17.414 2°41.62 290.2 12.2 292 26.3
2007-06-12 10:52:27 51°17.525 2°41.335 301.1 12.5 303 25.6
2007-06-12 10:53:26 51°17.635 2°41.061 300.9 12.4 302 24.4
2007-06-12 10:54:27 51°17.748 2°40.781 300.8 12.4 303 21.2
2007-06-12 10:55:26 51°17.857 2°40.512 301.3 12.3 305 18.6
2007-06-12 10:56:27 51°17.979 2°40.244 302.6 12.3 305 20
2007-06-12 10:57:27 51°18.104 2°39.986 303.5 12.2 307 17.1
2007-06-12 10:58:27 51°18.233 2°39.733 303.9 12.4 310 28
2007-06-12 10:59:26 51°18.362 2°39.483 302.7 12.4 309 27.6
2007-06-12 11:00:27 51°18.485 2°39.21 302.8 12.7 307 27.5
2007-06-12 11:01:27 51°18.611 2°38.94 303.4 12.7 307 28.2
2007-06-12 11:02:27 51°18.737 2°38.671 303.1 12.6 307 28.5
2007-06-12 11:03:27 51°18.863 2°38.407 309.3 12.7 312 28.5
2007-06-12 11:04:27 51°19.01 2°38.157 312 13 313 26.8
2007-06-12 11:05:27 51°19.157 2°37.91 311.8 12.7 313 23.6
2007-06-12 11:06:26 51°19.309 2°37.68 316.2 12.8 318 20.4
2007-06-12 11:07:27 51°19.472 2°37.452 315.7 12.7 318 23.3
2007-06-12 11:08:27 51°19.63 2°37.226 314.5 12.7 317 24.2
2007-06-12 11:09:26 51°19.791 2°37.011 318.6 12.9 322 23.5
2007-06-12 11:10:27 51°19.963 2°36.796 318.5 12.9 322 23.1
2007-06-12 11:11:26 51°20.139 2°36.603 322.7 13 327 23.2
2007-06-12 11:12:27 51°20.322 2°36.406 322.4 13 325 22.9
2007-06-12 11:13:27 51°20.501 2°36.211 322.3 13 325 21.2
2007-06-12 11:14:27 51°20.68 2°36.017 322.8 13 326 23
2007-06-12 11:15:27 51°20.859 2°35.824 322.2 12.9 325 23.8
2007-06-12 11:16:27 51°21.058 2°35.681 339.7 13.5 343 31.4
2007-06-12 11:17:27 51°21.276 2°35.574 339.2 13.9 344 36.1
2007-06-12 11:18:27 51°21.498 2°35.469 338 13.9 343 32.6
2007-06-12 11:19:27 51°21.714 2°35.35 336.9 13.7 340 32.8
2007-06-12 11:20:27 51°21.929 2°35.228 337.3 13.7 341 31.8
2007-06-12 11:21:27 51°22.143 2°35.109 338.8 13.7 342 31.3
2007-06-12 11:22:27 51°22.354 2°34.98 337 13.5 338 26.9
2007-06-12 11:23:27 51°22.56 2°34.842 332.4 13.3 334 26.5
2007-06-12 11:24:27 51°22.748 2°34.658 322.6 13.2 326 26.5
2007-06-12 11:25:27 51°22.92 2°34.445 319.3 13.1 322 34.7
2007-06-12 11:26:27 51°23.097 2°34.234 320.2 13.3 324 34.7
2007-06-12 11:27:26 51°23.273 2°34.031 320.9 13.2 325 33.2
2007-06-12 11:28:27 51°23.452 2°33.828 319.6 12.8 324 33.7
2007-06-12 11:29:26 51°23.624 2°33.635 319.9 12.8 325 32.7
2007-06-12 11:30:27 51°23.8 2°33.433 319.4 12.8 325 32.6
2007-06-12 11:31:27 51°23.976 2°33.238 320.8 12.9 326 32.1
2007-06-12 11:32:27 51°24.15 2°33.04 320.3 12.8 325 30.8
2007-06-12 11:33:27 51°24.323 2°32.84 320.4 12.9 324 26
2007-06-12 11:34:27 51°24.497 2°32.644 321.3 12.7 325 16.6
2007-06-12 11:35:27 51°24.67 2°32.448 320.6 12.9 323 25.6
2007-06-12 11:36:27 51°24.84 2°32.237 316.7 13 322 30.6
2007-06-12 11:37:27 51°25.009 2°32.028 317.8 12.1 323 32.3
2007-06-12 11:38:26 51°25.019 2°31.902 217.7 4.8 191 34.4
2007-06-12 11:39:26 51°24.871 2°31.898 197.8 10.4 196 31.7
2007-06-12 11:40:26 51°24.745 2°31.716 235.8 10.5 234 31.6
2007-06-12 11:41:26 51°24.628 2°31.509 229.5 10.6 229 35.3
2007-06-12 11:42:26 51°24.513 2°31.292 232.2 10.7 230 34.7
2007-06-12 11:43:26 51°24.396 2°31.078 231.7 10.7 228 31.2
2007-06-12 11:44:26 51°24.275 2°30.861 231.5 11 228 34.9
2007-06-12 11:45:26 51°24.149 2°30.642 230.9 11.2 227 35.4
2007-06-12 11:46:26 51°24.021 2°30.42 230.5 11.4 228 34.5
2007-06-12 11:47:26 51°23.894 2°30.194 234.2 10.7 231 34.2
2007-06-12 11:48:26 51°23.817 2°30.062 228.4 4.8 226 34.6
2007-06-12 11:49:26 51°23.788 2°29.975 244.7 3 247 34.5
2007-06-12 11:50:26 51°23.767 2°29.89 248.6 3.3 257 34.5
2007-06-12 11:51:26 51°23.763 2°29.83 246 1.6 260 34.5
2007-06-12 11:52:26 51°23.758 2°29.796 243.8 1 258 33.9
2007-06-12 11:53:26 51°23.748 2°29.775 226.2 1 219 34.1
2007-06-12 11:54:26 51°23.733 2°29.768 217.7 0.8 180 34.3
2007-06-12 11:55:26 51°23.734 2°29.789 210.6 1 77 32.9
2007-06-12 11:56:26 51°23.734 2°29.815 203.6 1.1 85 34.5
2007-06-12 11:57:26 51°23.741 2°29.847 202.3 1.4 63 34.8
2007-06-12 11:58:26 51°23.757 2°29.885 196.9 1.9 53 34.4
2007-06-12 11:59:26 51°23.779 2°29.928 178.7 2.1 51 33.8
2007-06-12 12:00:26 51°23.773 2°29.965 198.1 1.8 174 34.2
2007-06-12 12:01:26 51°23.757 2°29.912 255.3 3.4 259 34.7
2007-06-12 12:02:26 51°23.75 2°29.833 250.5 2.1 265 34.6
2007-06-12 12:03:26 51°23.745 2°29.798 238 0.9 260 33.8
2007-06-12 12:04:26 51°23.739 2°29.775 228 0.7 227 34
2007-06-12 12:05:26 51°23.732 2°29.78 207.5 0.7 101 34.2
2007-06-12 12:06:26 51°23.734 2°29.808 194.8 1.3 74 34.2
2007-06-12 12:07:26 51°23.745 2°29.845 187.1 1.7 60 34.6
2007-06-12 12:08:26 51°23.762 2°29.887 171.2 2 52 34.6
2007-06-12 12:09:26 51°23.782 2°29.93 153.5 2 65 33.9
2007-06-12 12:10:26 51°23.767 2°29.973 190.6 2.2 170 34.4
2007-06-12 12:11:26 51°23.746 2°29.922 257.6 3.5 271 34.3
2007-06-12 12:12:26 51°23.747 2°29.832 248.9 3 261 34.6
2007-06-12 12:13:26 51°23.746 2°29.771 248.8 1.4 266 33.6
2007-06-12 12:14:26 51°23.739 2°29.756 217 0.6 176 34
2007-06-12 12:15:26 51°23.732 2°29.768 203.5 0.8 103 34.1
2007-06-12 12:16:26 51°23.732 2°29.794 198.4 1.1 75 31.1
2007-06-12 12:17:26 51°23.743 2°29.827 191.5 1.6 57 32.3
2007-06-12 12:18:26 51°23.761 2°29.864 175.8 1.9 47 34
2007-06-12 12:19:26 51°23.784 2°29.901 156.5 1.9 43 34.3
2007-06-12 12:20:26 51°23.805 2°29.939 143.4 1.9 65 34.1
2007-06-12 12:21:26 51°23.786 2°29.983 190.1 2.4 170 34.2
2007-06-12 12:22:26 51°23.759 2°29.881 268.9 7.2 284 34.2
2007-06-12 12:23:26 51°23.9 2°29.734 347.7 13.3 355 34.2
2007-06-12 12:24:26 51°24.113 2°29.873 30 14.4 28 34.2
2007-06-12 12:25:26 51°24.326 2°30.046 29.1 14.4 26 34.2
2007-06-12 12:26:26 51°24.54 2°30.214 29.5 14 26 34.7
2007-06-12 12:27:26 51°24.752 2°30.39 29.2 14.1 26 34.4
2007-06-12 12:28:26 51°24.964 2°30.566 29 14.5 27 34.2
2007-06-12 12:29:26 51°25.174 2°30.737 29.4 12.4 29 34
2007-06-12 12:30:26 51°25.313 2°30.821 4.3 6.7 3 34
2007-06-12 12:31:26 51°25.391 2°30.784 312.3 4.5 323 34
2007-06-12 12:32:26 51°25.403 2°30.704 237.5 2.2 246 33.7
2007-06-12 12:33:26 51°25.385 2°30.651 243.2 2.9 252 33.6
2007-06-12 12:34:26 51°25.363 2°30.572 232.9 3.4 239 33.4
2007-06-12 12:35:26 51°25.343 2°30.495 232.5 2.7 233 33.4
2007-06-12 12:36:26 51°25.328 2°30.437 262.1 2.6 289 33.3
2007-06-12 12:37:26 51°25.355 2°30.395 284.1 1.9 331 33.2
2007-06-12 12:38:26 51°25.382 2°30.38 286.1 1.6 354 33.3
2007-06-12 12:39:26 51°25.407 2°30.386 287 1.7 22 32.9
2007-06-12 12:40:26 51°25.432 2°30.413 303 1.7 41 33
2007-06-12 12:41:26 51°25.452 2°30.447 326 1.7 51 32.9
2007-06-12 12:42:26 51°25.469 2°30.481 344.8 1.6 53 33.2
2007-06-12 12:43:26 51°25.485 2°30.515 354.9 1.5 49 33.2
2007-06-12 12:44:26 51°25.529 2°30.504 306.2 4 313 33
2007-06-12 12:45:26 51°25.52 2°30.426 219.1 3 209 32.7
2007-06-12 12:46:26 51°25.461 2°30.417 188.6 4.1 173 32.7
2007-06-12 12:47:26 51°25.397 2°30.445 179.2 2.9 157 32.7
2007-06-12 12:48:26 51°25.39 2°30.475 192.3 2 39 33.1
2007-06-12 12:49:26 51°25.416 2°30.507 173.3 1.4 58 32.9
2007-06-12 12:50:26 51°25.391 2°30.559 154.7 3.6 131 33.3
2007-06-12 12:51:26 51°25.365 2°30.624 152.6 2.4 114 33.4
2007-06-12 12:52:26 51°25.356 2°30.671 158.3 1.6 100 33.5
2007-06-12 12:53:26 51°25.354 2°30.71 162.7 1.4 93 33.4
2007-06-12 12:54:26 51°25.354 2°30.743 173.5 1.2 88 33.4
2007-06-12 12:55:26 51°25.336 2°30.759 209.9 1 186 33.6
2007-06-12 12:56:26 51°25.328 2°30.747 238.5 0.7 270 33.4
2007-06-12 12:57:26 51°25.335 2°30.686 269.5 3.3 290 33.1
2007-06-12 12:58:26 51°25.367 2°30.637 298.5 2.4 328 33.4
2007-06-12 12:59:26 51°25.398 2°30.617 298.6 1.8 347 33.2
2007-06-12 13:00:26 51°25.425 2°30.613 291.8 1.6 6 33.2
2007-06-12 13:01:26 51°25.45 2°30.622 294.9 1.5 20 33.4
2007-06-12 13:02:26 51°25.473 2°30.641 303.1 1.7 32 33.2
2007-06-12 13:03:26 51°25.496 2°30.666 315.7 1.7 38 33.2
2007-06-12 13:04:26 51°25.515 2°30.697 329.2 1.6 47 33.3
2007-06-12 13:05:26 51°25.543 2°30.713 321 2.3 355 32.9
2007-06-12 13:06:26 51°25.574 2°30.684 280.1 2.1 307 33.2
2007-06-12 13:07:26 51°25.577 2°30.639 232.1 1.5 237 32.8
2007-06-12 13:08:26 51°25.554 2°30.623 208 1.3 185 33
2007-06-12 13:09:26 51°25.537 2°30.625 208.3 0.8 175 33.1
2007-06-12 13:10:26 51°25.527 2°30.627 215.2 0.4 165 32.9
2007-06-12 13:11:26 51°25.523 2°30.636 214.4 0.5 112 33
2007-06-12 13:12:26 51°25.523 2°30.649 214 0.5 77 33.1
2007-06-12 13:13:26 51°25.525 2°30.662 216.2 0.5 77 33.1
2007-06-12 13:14:26 51°25.527 2°30.676 218.1 0.6 67 33.1
2007-06-12 13:15:26 51°25.53 2°30.688 221.7 0.6 64 33.1
2007-06-12 13:16:26 51°25.535 2°30.701 223.3 0.6 55 33.1
2007-06-12 13:17:26 51°25.54 2°30.714 224.8 0.6 53 32.9
2007-06-12 13:18:26 51°25.546 2°30.726 225 0.5 45 33
2007-06-12 13:19:26 51°25.553 2°30.735 230.2 0.5 35 33
2007-06-12 13:20:26 51°25.561 2°30.743 236.6 0.7 29 33
2007-06-12 13:21:26 51°25.574 2°30.754 241 0.9 23 32.6
2007-06-12 13:22:26 51°25.591 2°30.766 253.9 1.2 23 32.8
2007-06-12 13:23:26 51°25.612 2°30.773 273.1 1.4 355 32.9
2007-06-12 13:24:26 51°25.634 2°30.756 274 1.5 318 33
2007-06-12 13:25:26 51°25.646 2°30.725 255.7 1.4 291 32.6
2007-06-12 13:26:26 51°25.648 2°30.694 233.2 0.9 255 32.4
2007-06-12 13:27:26 51°25.64 2°30.686 206.8 0.6 165 32.5
2007-06-12 13:28:26 51°25.629 2°30.699 187.5 1.1 131 32.4
2007-06-12 13:29:26 51°25.616 2°30.722 184.4 1.2 132 32.5
2007-06-12 13:30:26 51°25.604 2°30.745 185.4 1 132 33
2007-06-12 13:31:26 51°25.592 2°30.76 193.6 0.8 147 32.7
2007-06-12 13:32:26 51°25.583 2°30.774 196.9 0.7 131 32.8
2007-06-12 13:33:26 51°25.575 2°30.79 193.4 0.8 127 32.9
2007-06-12 13:34:26 51°25.567 2°30.806 195.3 0.7 138 32.8
2007-06-12 13:35:26 51°25.56 2°30.818 201.8 0.6 128 32.7
2007-06-12 13:36:26 51°25.554 2°30.828 204.3 0.5 145 32.6
2007-06-12 13:37:26 51°25.549 2°30.837 206.2 0.5 130 32.5
2007-06-12 13:38:26 51°25.544 2°30.849 204.5 0.6 113 32.5
2007-06-12 13:39:26 51°25.538 2°30.865 201.7 0.7 121 32.6
2007-06-12 13:40:26 51°25.535 2°30.88 202.2 0.6 109 32.7
2007-06-12 13:41:26 51°25.532 2°30.897 202.6 0.5 110 32.7
2007-06-12 13:42:26 51°25.53 2°30.904 219.1 0.1 160 32.6
2007-06-12 13:43:26 51°25.531 2°30.899 242.1 0.5 307 32.6
2007-06-12 13:44:26 51°25.546 2°30.881 288.3 1.4 342 32.7
2007-06-12 13:45:26 51°25.572 2°30.877 308.1 1.7 350 32.6
2007-06-12 13:46:26 51°25.603 2°30.855 303 2.4 328 32.8
2007-06-12 13:47:26 51°25.632 2°30.821 296.5 1.8 325 32.6
2007-06-12 13:48:26 51°25.656 2°30.805 301.1 1.4 349 32.6
2007-06-12 13:49:26 51°25.679 2°30.805 308.7 1.4 3 32.4
2007-06-12 13:50:26 51°25.7 2°30.812 312.8 1.3 16 32.5
2007-06-12 13:51:26 51°25.721 2°30.823 317.3 1.3 19 32.2
2007-06-12 13:52:26 51°25.74 2°30.838 322.2 1.3 31 32.8
2007-06-12 13:53:26 51°25.757 2°30.855 327.9 1.2 35 33
2007-06-12 13:54:27 51°25.778 2°30.866 328.9 2.2 344 32.8
2007-06-12 13:55:27 51°25.792 2°30.784 248 4 241 32.7
2007-06-12 13:56:27 51°25.722 2°30.803 145.8 6.6 136 32
2007-06-12 13:57:27 51°25.587 2°30.961 152 12 148 32.8
2007-06-12 13:58:27 51°25.408 2°31.13 153.2 12.6 149 32.5
2007-06-12 13:59:27 51°25.249 2°31.343 135 12.7 131 32.7
2007-06-12 14:00:27 51°25.115 2°31.608 132.2 12.7 131 32.3
2007-06-12 14:01:27 51°24.978 2°31.872 133.8 12.9 132 29.2
2007-06-12 14:02:27 51°24.84 2°32.135 133.7 12.8 132 25.8
2007-06-12 14:03:27 51°24.703 2°32.398 134.7 12.9 131 22.7
2007-06-12 14:04:27 51°24.567 2°32.66 132.5 12.7 129 14.6
2007-06-12 14:05:27 51°24.429 2°32.917 134.4 13 132 24.2
2007-06-12 14:06:27 51°24.288 2°33.176 132.8 12.9 132 29.5
2007-06-12 14:07:27 51°24.153 2°33.444 131.8 12.9 127 29.3
2007-06-12 14:08:27 51°24.022 2°33.711 132.2 12.6 129 30.1
2007-06-12 14:09:27 51°23.89 2°33.972 131 12.7 130 30.5
2007-06-12 14:10:27 51°23.755 2°34.232 132.3 12.7 130 31.7
2007-06-12 14:11:27 51°23.622 2°34.492 131.7 12.7 130 31.2
2007-06-12 14:12:27 51°23.484 2°34.752 132.6 12.9 132 33.7
2007-06-12 14:13:27 51°23.308 2°34.935 155.4 12.7 154 32
2007-06-12 14:14:27 51°23.113 2°35.07 159.1 12.7 157 30.6
2007-06-12 14:15:27 51°22.92 2°35.208 157.4 12.7 158 23.6
2007-06-12 14:16:27 51°22.726 2°35.346 155.6 12.8 155 25.6
2007-06-12 14:17:27 51°22.536 2°35.487 156.4 12.6 157 27.5
2007-06-12 14:18:27 51°22.341 2°35.619 159.6 12.8 157 28.3
2007-06-12 14:19:27 51°22.145 2°35.744 159.9 12.7 159 28.7
2007-06-12 14:20:27 51°21.949 2°35.863 159.2 12.6 159 30.1
2007-06-12 14:21:27 51°21.752 2°35.982 160.7 12.8 159 31.3
2007-06-12 14:22:27 51°21.552 2°36.098 159.9 12.8 160 30.5
2007-06-12 14:23:27 51°21.353 2°36.218 159.6 12.7 159 30.3
2007-06-12 14:24:27 51°21.153 2°36.337 159.6 12.9 160 25.8
2007-06-12 14:25:27 51°20.952 2°36.458 159.7 12.8 159 24.4
2007-06-12 14:26:27 51°20.779 2°36.647 143.3 12.6 142 21.3
2007-06-12 14:27:27 51°20.634 2°36.888 130.6 12.7 130 20.7
2007-06-12 14:28:27 51°20.494 2°37.141 131.7 12.7 132 22.2
2007-06-12 14:29:27 51°20.354 2°37.39 131.8 12.7 133 22.4
2007-06-12 14:30:27 51°20.213 2°37.636 132.7 12.7 133 22.1
2007-06-12 14:31:27 51°20.071 2°37.881 132.5 12.6 133 21.9
2007-06-12 14:32:27 51°19.926 2°38.123 131.9 12.6 135 22.7
2007-06-12 14:33:27 51°19.781 2°38.367 132.8 12.8 133 22.4
2007-06-12 14:34:27 51°19.634 2°38.609 132.2 12.7 132 23.3
2007-06-12 14:35:27 51°19.486 2°38.853 133.7 12.9 134 26.3
2007-06-12 14:36:27 51°19.338 2°39.099 133 13 135 27.8
2007-06-12 14:37:27 51°19.189 2°39.349 132.7 12.9 132 27.1
2007-06-12 14:38:27 51°19.046 2°39.602 134.3 12.7 133 24.3
2007-06-12 14:39:27 51°18.905 2°39.854 129.9 12.7 131 22.8
2007-06-12 14:40:27 51°18.765 2°40.106 130.3 12.7 132 23.5
2007-06-12 14:41:27 51°18.626 2°40.355 131.1 12.5 133 20.5
2007-06-12 14:42:27 51°18.488 2°40.6 129.3 12.6 132 16
2007-06-12 14:43:27 51°18.348 2°40.849 130.9 12.6 133 13.2
2007-06-12 14:44:27 51°18.209 2°41.097 130.1 12.8 130 18.5
2007-06-12 14:45:27 51°18.066 2°41.352 129.6 12.8 128 21.1
2007-06-12 14:46:27 51°17.944 2°41.626 122.6 12.7 125 22.3
2007-06-12 14:47:27 51°17.823 2°41.901 123.3 12.6 126 23.2
2007-06-12 14:48:27 51°17.702 2°42.174 123.7 12.7 125 23.1
2007-06-12 14:49:27 51°17.578 2°42.449 124 12.7 126 21.9
2007-06-12 14:50:27 51°17.455 2°42.718 124.4 12.3 127 14
2007-06-12 14:51:27 51°17.337 2°42.975 124.2 12 125 9
2007-06-12 14:52:27 51°17.218 2°43.238 125 12.4 126 12
2007-06-12 14:53:27 51°17.093 2°43.504 124.4 12.6 126 13.6
2007-06-12 14:54:27 51°16.969 2°43.776 124.3 12.6 126 13.8
2007-06-12 14:55:27 51°16.845 2°44.048 125.2 12.7 127 14.3
2007-06-12 14:56:27 51°16.721 2°44.317 123.8 12.6 126 13.7
2007-06-12 14:57:27 51°16.6 2°44.591 123.5 12.6 124 11.1
2007-06-12 14:58:27 51°16.474 2°44.862 126.4 12.7 127 9.4
2007-06-12 14:59:27 51°16.373 2°45.16 112.5 12.7 112 10.3
2007-06-12 15:00:27 51°16.293 2°45.473 113.4 12.7 114 9.9
2007-06-12 15:01:27 51°16.223 2°45.789 109 12.6 110 9.4
2007-06-12 15:02:27 51°16.153 2°46.103 108.1 12.5 109 10.2
2007-06-12 15:03:27 51°16.08 2°46.41 109.5 12.3 111 10.2
2007-06-12 15:04:27 51°16.009 2°46.718 108.7 12.4 112 14.3
2007-06-12 15:05:27 51°15.934 2°47.026 109.3 12.3 111 15.6
2007-06-12 15:06:27 51°15.864 2°47.334 109.1 12.4 110 15.2
2007-06-12 15:07:27 51°15.793 2°47.643 109.6 12.3 111 14
2007-06-12 15:08:27 51°15.725 2°47.951 107.9 12.4 109 12.1
2007-06-12 15:09:27 51°15.656 2°48.259 109.2 12.3 110 10.4
2007-06-12 15:10:27 51°15.588 2°48.567 108.5 12.3 108 9.5
2007-06-12 15:11:27 51°15.518 2°48.876 109.6 12.5 109 9.8
2007-06-12 15:12:27 51°15.45 2°49.187 108.7 12.2 110 12
2007-06-12 15:13:27 51°15.38 2°49.492 108.8 12.3 109 11.9
2007-06-12 15:14:27 51°15.318 2°49.804 107.8 12.4 110 11.8
2007-06-12 15:15:27 51°15.256 2°50.115 106.8 12.4 107 11.7
2007-06-12 15:16:27 51°15.193 2°50.43 108.6 12.5 109 11.5
2007-06-12 15:17:27 51°15.132 2°50.743 106.6 12.3 108 11.3
2007-06-12 15:18:27 51°15.071 2°51.052 107.5 12.2 109 11.1
2007-06-12 15:19:27 51°15.011 2°51.362 108 12.4 109 10.6
2007-06-12 15:20:27 51°14.948 2°51.67 106.6 12.2 108 10
2007-06-12 15:21:27 51°14.882 2°51.977 107.1 12.2 108 9.3
2007-06-12 15:22:27 51°14.826 2°52.285 102.4 12.1 103 8.8
2007-06-12 15:23:27 51°14.777 2°52.599 104.3 12.2 102 8.4
2007-06-12 15:24:27 51°14.74 2°52.92 101.6 12.3 104 8.1
2007-06-12 15:25:27 51°14.712 2°53.242 95.3 12.1 94 7.9
2007-06-12 15:26:27 51°14.685 2°53.561 96.8 12.3 96 8.5
2007-06-12 15:27:27 51°14.655 2°53.89 101.6 12.7 101 10
2007-06-12 15:28:27 51°14.611 2°54.211 105.2 12 108 9.9
2007-06-12 15:29:27 51°14.537 2°54.508 112.5 12.3 115 10
2007-06-12 15:30:27 51°14.454 2°54.809 114.3 12.4 116 9.9
2007-06-12 15:31:27 51°14.352 2°55.099 122.9 12.7 123 9.8
2007-06-12 15:32:27 51°14.218 2°55.33 141.8 10.5 141 10.1
2007-06-12 15:33:27 51°14.086 2°55.444 156.9 8.2 154 9.9
2007-06-12 15:34:27 51°13.971 2°55.528 159.5 7.5 155 10.1
2007-06-12 15:35:27 51°13.849 2°55.616 158.4 7.6 155 10.1
2007-06-12 15:36:27 51°13.755 2°55.718 142.3 6.5 137 10
2007-06-12 15:37:27 51°13.684 2°55.847 133 6.2 129 9.8
2007-06-12 15:38:27 51°13.635 2°55.955 126 4.3 121 10.1
2007-06-12 15:39:27 51°13.613 2°56.04 111.1 2.7 106 9.7
2007-06-12 15:40:27 51°13.601 2°56.086 123 0.9 118 5.5
2007-06-12 15:41:27 51°13.598 2°56.092 134.1 0.3 132 7.2